sensor_id;sensor_type;location;lat;lon;timestamp;temperature;humidity
54409;DHT22;40315;48.620;9.828;2023-02-21T00:00:41;3.00;99.90
54409;DHT22;40315;48.620;9.828;2023-02-21T00:03:25;2.90;99.90
54409;DHT22;40315;48.620;9.828;2023-02-21T00:06:12;2.90;99.90
54409;DHT22;40315;48.620;9.828;2023-02-21T00:09:01;2.90;99.90
54409;DHT22;40315;48.620;9.828;2023-02-21T00:11:46;2.90;99.90
54409;DHT22;40315;48.620;9.828;2023-02-21T00:14:30;2.80;99.90
54409;DHT22;40315;48.620;9.828;2023-02-21T00:17:17;2.70;99.90
54409;DHT22;40315;48.620;9.828;2023-02-21T00:20:04;2.70;99.90
54409;DHT22;40315;48.620;9.828;2023-02-21T00:22:49;2.70;99.90
54409;DHT22;40315;48.620;9.828;2023-02-21T00:25:35;2.70;99.90
54409;DHT22;40315;48.620;9.828;2023-02-21T00:28:19;2.60;99.90
54409;DHT22;40315;48.620;9.828;2023-02-21T00:31:04;2.70;99.90
54409;DHT22;40315;48.620;9.828;2023-02-21T00:33:50;2.50;99.90
54409;DHT22;40315;48.620;9.828;2023-02-21T00:36:35;2.50;99.90
54409;DHT22;40315;48.620;9.828;2023-02-21T00:39:19;2.50;99.90
54409;DHT22;40315;48.620;9.828;2023-02-21T00:42:05;2.50;99.90
54409;DHT22;40315;48.620;9.828;2023-02-21T00:44:49;2.60;99.90
54409;DHT22;40315;48.620;9.828;2023-02-21T00:47:34;2.50;99.90
54409;DHT22;40315;48.620;9.828;2023-02-21T00:50:18;2.50;99.90
54409;DHT22;40315;48.620;9.828;2023-02-21T00:53:03;2.50;99.90
54409;DHT22;40315;48.620;9.828;2023-02-21T00:55:47;2.40;99.90
54409;DHT22;40315;48.620;9.828;2023-02-21T00:58:33;2.30;99.90
54409;DHT22;40315;48.620;9.828;2023-02-21T01:01:18;3.30;99.90
54409;DHT22;40315;48.620;9.828;2023-02-21T01:04:02;3.40;99.90
54409;DHT22;40315;48.620;9.828;2023-02-21T01:06:49;2.30;99.90
54409;DHT22;40315;48.620;9.828;2023-02-21T01:09:34;2.20;99.90
54409;DHT22;40315;48.620;9.828;2023-02-21T01:12:19;2.20;99.90
54409;DHT22;40315;48.620;9.828;2023-02-21T01:15:06;2.20;99.90
54409;DHT22;40315;48.620;9.828;2023-02-21T01:17:51;2.10;99.90
54409;DHT22;40315;48.620;9.828;2023-02-21T01:20:36;2.20;99.90
54409;DHT22;40315;48.620;9.828;2023-02-21T01:23:20;3.90;99.90
54409;DHT22;40315;48.620;9.828;2023-02-21T01:26:07;2.30;99.90
54409;DHT22;40315;48.620;9.828;2023-02-21T01:28:57;2.30;99.90
54409;DHT22;40315;48.620;9.828;2023-02-21T01:31:42;2.30;99.90
54409;DHT22;40315;48.620;9.828;2023-02-21T01:34:27;2.30;99.90
54409;DHT22;40315;48.620;9.828;2023-02-21T01:37:14;2.20;99.90
54409;DHT22;40315;48.620;9.828;2023-02-21T01:39:58;2.30;99.90
54409;DHT22;40315;48.620;9.828;2023-02-21T01:42:43;2.30;99.90
54409;DHT22;40315;48.620;9.828;2023-02-21T01:48:53;2.10;99.90
54409;DHT22;40315;48.620;9.828;2023-02-21T01:51:40;2.20;99.90
54409;DHT22;40315;48.620;9.828;2023-02-21T01:54:28;2.20;99.90
54409;DHT22;40315;48.620;9.828;2023-02-21T01:57:13;2.20;99.90
54409;DHT22;40315;48.620;9.828;2023-02-21T02:00:05;2.20;99.90
54409;DHT22;40315;48.620;9.828;2023-02-21T02:03:15;2.20;99.90
54409;DHT22;40315;48.620;9.828;2023-02-21T02:06:04;2.20;99.90
54409;DHT22;40315;48.620;9.828;2023-02-21T02:08:48;2.10;99.90
54409;DHT22;40315;48.620;9.828;2023-02-21T02:12:01;2.10;99.90
54409;DHT22;40315;48.620;9.828;2023-02-21T02:15:06;2.80;99.90
54409;DHT22;40315;48.620;9.828;2023-02-21T02:17:47;2.20;99.90
54409;DHT22;40315;48.620;9.828;2023-02-21T02:23:26;2.10;99.90
54409;DHT22;40315;48.620;9.828;2023-02-21T02:29:09;2.30;99.90
54409;DHT22;40315;48.620;9.828;2023-02-21T02:32:00;2.00;99.90
54409;DHT22;40315;48.620;9.828;2023-02-21T02:34:56;2.00;99.90
54409;DHT22;40315;48.620;9.828;2023-02-21T02:37:30;2.00;99.90
54409;DHT22;40315;48.620;9.828;2023-02-21T02:40:03;2.00;99.90
54409;DHT22;40315;48.620;9.828;2023-02-21T02:42:43;2.00;99.90
54409;DHT22;40315;48.620;9.828;2023-02-21T02:45:17;2.00;99.90
54409;DHT22;40315;48.620;9.828;2023-02-21T02:47:50;2.10;99.90
54409;DHT22;40315;48.620;9.828;2023-02-21T02:50:22;2.00;99.90
54409;DHT22;40315;48.620;9.828;2023-02-21T02:52:52;2.00;99.90
54409;DHT22;40315;48.620;9.828;2023-02-21T02:55:32;1.90;99.90
54409;DHT22;40315;48.620;9.828;2023-02-21T02:58:03;1.90;99.90
54409;DHT22;40315;48.620;9.828;2023-02-21T03:00:32;1.90;99.90
54409;DHT22;40315;48.620;9.828;2023-02-21T03:03:23;1.80;99.90
54409;DHT22;40315;48.620;9.828;2023-02-21T03:06:05;1.80;99.90
54409;DHT22;40315;48.620;9.828;2023-02-21T03:08:43;1.80;99.90
54409;DHT22;40315;48.620;9.828;2023-02-21T03:11:16;1.80;99.90
54409;DHT22;40315;48.620;9.828;2023-02-21T03:13:48;1.80;99.90
54409;DHT22;40315;48.620;9.828;2023-02-21T03:16:23;1.90;99.90
54409;DHT22;40315;48.620;9.828;2023-02-21T03:18:53;2.30;99.90
54409;DHT22;40315;48.620;9.828;2023-02-21T03:21:26;1.80;99.90
54409;DHT22;40315;48.620;9.828;2023-02-21T03:23:57;1.80;99.90
54409;DHT22;40315;48.620;9.828;2023-02-21T03:26:26;1.90;99.90
54409;DHT22;40315;48.620;9.828;2023-02-21T03:29:04;1.90;99.90
54409;DHT22;40315;48.620;9.828;2023-02-21T03:31:39;1.80;99.90
54409;DHT22;40315;48.620;9.828;2023-02-21T03:34:12;1.80;99.90
54409;DHT22;40315;48.620;9.828;2023-02-21T03:39:09;1.80;99.90
54409;DHT22;40315;48.620;9.828;2023-02-21T03:44:04;1.30;99.90
54409;DHT22;40315;48.620;9.828;2023-02-21T03:46:31;1.80;99.90
54409;DHT22;40315;48.620;9.828;2023-02-21T03:49:00;1.80;99.90
54409;DHT22;40315;48.620;9.828;2023-02-21T03:51:28;1.90;99.90
54409;DHT22;40315;48.620;9.828;2023-02-21T03:56:33;1.70;99.90
54409;DHT22;40315;48.620;9.828;2023-02-21T03:59:13;1.60;99.90
54409;DHT22;40315;48.620;9.828;2023-02-21T04:01:41;1.60;99.90
54409;DHT22;40315;48.620;9.828;2023-02-21T04:09:08;1.70;99.90
54409;DHT22;40315;48.620;9.828;2023-02-21T04:11:35;1.60;99.90
54409;DHT22;40315;48.620;9.828;2023-02-21T04:14:02;1.60;99.90
54409;DHT22;40315;48.620;9.828;2023-02-21T04:16:30;1.50;99.90
54409;DHT22;40315;48.620;9.828;2023-02-21T04:18:57;1.50;99.90
54409;DHT22;40315;48.620;9.828;2023-02-21T04:21:25;1.50;99.90
54409;DHT22;40315;48.620;9.828;2023-02-21T04:24:00;1.40;99.90
54409;DHT22;40315;48.620;9.828;2023-02-21T04:26:32;1.40;99.90
54409;DHT22;40315;48.620;9.828;2023-02-21T04:29:00;1.50;99.90
54409;DHT22;40315;48.620;9.828;2023-02-21T04:31:31;1.50;99.90
54409;DHT22;40315;48.620;9.828;2023-02-21T04:34:01;1.50;99.90
54409;DHT22;40315;48.620;9.828;2023-02-21T04:36:29;1.60;99.90
54409;DHT22;40315;48.620;9.828;2023-02-21T04:38:56;1.50;99.90
54409;DHT22;40315;48.620;9.828;2023-02-21T04:41:23;1.50;99.90
54409;DHT22;40315;48.620;9.828;2023-02-21T04:43:52;1.40;99.90
54409;DHT22;40315;48.620;9.828;2023-02-21T04:46:19;2.00;99.90
54409;DHT22;40315;48.620;9.828;2023-02-21T04:48:48;1.20;99.90
54409;DHT22;40315;48.620;9.828;2023-02-21T04:51:17;1.30;99.90
54409;DHT22;40315;48.620;9.828;2023-02-21T04:53:46;1.30;99.90
54409;DHT22;40315;48.620;9.828;2023-02-21T04:56:13;1.30;99.90
54409;DHT22;40315;48.620;9.828;2023-02-21T04:58:41;1.30;99.90
54409;DHT22;40315;48.620;9.828;2023-02-21T05:06:05;1.30;99.90
54409;DHT22;40315;48.620;9.828;2023-02-21T05:08:33;1.20;99.90
54409;DHT22;40315;48.620;9.828;2023-02-21T05:11:01;1.20;99.90
54409;DHT22;40315;48.620;9.828;2023-02-21T05:13:28;1.30;99.90
54409;DHT22;40315;48.620;9.828;2023-02-21T05:15:55;1.30;99.90
54409;DHT22;40315;48.620;9.828;2023-02-21T05:20:53;1.40;99.90
54409;DHT22;40315;48.620;9.828;2023-02-21T05:23:20;1.40;99.90
54409;DHT22;40315;48.620;9.828;2023-02-21T05:25:59;1.30;99.90
54409;DHT22;40315;48.620;9.828;2023-02-21T05:28:26;1.30;99.90
54409;DHT22;40315;48.620;9.828;2023-02-21T05:30:55;1.30;99.90
54409;DHT22;40315;48.620;9.828;2023-02-21T05:33:24;1.30;99.90
54409;DHT22;40315;48.620;9.828;2023-02-21T05:35:51;1.90;99.90
54409;DHT22;40315;48.620;9.828;2023-02-21T05:38:22;1.20;99.90
54409;DHT22;40315;48.620;9.828;2023-02-21T05:40:50;1.20;99.90
54409;DHT22;40315;48.620;9.828;2023-02-21T05:43:17;1.20;99.90
54409;DHT22;40315;48.620;9.828;2023-02-21T05:45:44;1.10;99.90
54409;DHT22;40315;48.620;9.828;2023-02-21T05:48:11;1.10;99.90
54409;DHT22;40315;48.620;9.828;2023-02-21T05:53:09;1.30;99.90
54409;DHT22;40315;48.620;9.828;2023-02-21T05:55:38;1.30;99.90
54409;DHT22;40315;48.620;9.828;2023-02-21T05:58:05;1.30;99.90
54409;DHT22;40315;48.620;9.828;2023-02-21T06:00:32;1.30;99.90
54409;DHT22;40315;48.620;9.828;2023-02-21T06:02:59;2.00;99.90
54409;DHT22;40315;48.620;9.828;2023-02-21T06:05:28;1.20;99.90
54409;DHT22;40315;48.620;9.828;2023-02-21T06:07:58;1.10;99.90
54409;DHT22;40315;48.620;9.828;2023-02-21T06:10:25;1.10;99.90
54409;DHT22;40315;48.620;9.828;2023-02-21T06:12:52;1.10;99.90
54409;DHT22;40315;48.620;9.828;2023-02-21T06:15:19;1.10;99.90
54409;DHT22;40315;48.620;9.828;2023-02-21T06:17:46;1.30;99.90
54409;DHT22;40315;48.620;9.828;2023-02-21T06:20:13;1.30;99.90
54409;DHT22;40315;48.620;9.828;2023-02-21T06:22:41;2.00;99.90
54409;DHT22;40315;48.620;9.828;2023-02-21T06:27:37;3.00;99.90
54409;DHT22;40315;48.620;9.828;2023-02-21T06:30:05;1.20;99.90
54409;DHT22;40315;48.620;9.828;2023-02-21T06:32:32;1.20;99.90
54409;DHT22;40315;48.620;9.828;2023-02-21T06:34:59;1.30;99.90
54409;DHT22;40315;48.620;9.828;2023-02-21T06:37:26;1.20;99.90
54409;DHT22;40315;48.620;9.828;2023-02-21T06:39:53;1.20;99.90
54409;DHT22;40315;48.620;9.828;2023-02-21T06:44:49;1.30;99.90
54409;DHT22;40315;48.620;9.828;2023-02-21T06:47:16;1.30;99.90
54409;DHT22;40315;48.620;9.828;2023-02-21T06:49:44;1.30;99.90
54409;DHT22;40315;48.620;9.828;2023-02-21T06:52:13;1.40;99.90
54409;DHT22;40315;48.620;9.828;2023-02-21T06:54:40;1.40;99.90
54409;DHT22;40315;48.620;9.828;2023-02-21T06:57:07;1.40;99.90
54409;DHT22;40315;48.620;9.828;2023-02-21T07:02:03;1.50;99.90
54409;DHT22;40315;48.620;9.828;2023-02-21T07:04:30;1.50;99.90
54409;DHT22;40315;48.620;9.828;2023-02-21T07:06:57;1.50;99.90
54409;DHT22;40315;48.620;9.828;2023-02-21T07:09:24;1.60;99.90
54409;DHT22;40315;48.620;9.828;2023-02-21T07:11:51;1.60;99.90
54409;DHT22;40315;48.620;9.828;2023-02-21T07:16:47;1.70;99.90
54409;DHT22;40315;48.620;9.828;2023-02-21T07:19:15;1.70;99.90
54409;DHT22;40315;48.620;9.828;2023-02-21T07:21:42;1.70;99.90
54409;DHT22;40315;48.620;9.828;2023-02-21T07:24:09;1.70;99.90
54409;DHT22;40315;48.620;9.828;2023-02-21T07:26:39;1.70;99.90
54409;DHT22;40315;48.620;9.828;2023-02-21T07:31:33;1.80;99.90
54409;DHT22;40315;48.620;9.828;2023-02-21T07:36:30;1.80;99.90
54409;DHT22;40315;48.620;9.828;2023-02-21T07:38:58;1.80;99.90
54409;DHT22;40315;48.620;9.828;2023-02-21T07:41:25;1.80;99.90
54409;DHT22;40315;48.620;9.828;2023-02-21T07:46:19;1.90;99.90
54409;DHT22;40315;48.620;9.828;2023-02-21T07:48:46;2.00;99.90
54409;DHT22;40315;48.620;9.828;2023-02-21T07:53:43;4.00;99.90
54409;DHT22;40315;48.620;9.828;2023-02-21T07:56:10;2.10;99.90
54409;DHT22;40315;48.620;9.828;2023-02-21T07:58:37;2.10;99.90
54409;DHT22;40315;48.620;9.828;2023-02-21T08:01:06;2.30;99.90
54409;DHT22;40315;48.620;9.828;2023-02-21T08:03:34;2.30;99.90
54409;DHT22;40315;48.620;9.828;2023-02-21T08:06:02;2.40;99.90
54409;DHT22;40315;48.620;9.828;2023-02-21T08:11:01;2.60;99.90
54409;DHT22;40315;48.620;9.828;2023-02-21T08:13:28;2.60;99.90
54409;DHT22;40315;48.620;9.828;2023-02-21T08:15:55;2.60;99.90
54409;DHT22;40315;48.620;9.828;2023-02-21T08:18:23;2.70;99.90
54409;DHT22;40315;48.620;9.828;2023-02-21T08:20:50;2.70;99.90
54409;DHT22;40315;48.620;9.828;2023-02-21T08:23:18;2.80;99.90
54409;DHT22;40315;48.620;9.828;2023-02-21T08:28:15;3.00;99.90
54409;DHT22;40315;48.620;9.828;2023-02-21T08:30:45;3.00;99.90
54409;DHT22;40315;48.620;9.828;2023-02-21T08:33:13;3.20;99.90
54409;DHT22;40315;48.620;9.828;2023-02-21T08:35:41;3.30;99.90
54409;DHT22;40315;48.620;9.828;2023-02-21T08:38:09;3.30;99.90
54409;DHT22;40315;48.620;9.828;2023-02-21T08:40:36;3.30;99.90
54409;DHT22;40315;48.620;9.828;2023-02-21T08:45:32;3.60;99.90
54409;DHT22;40315;48.620;9.828;2023-02-21T08:50:27;3.70;99.90
54409;DHT22;40315;48.620;9.828;2023-02-21T08:52:55;3.90;99.90
54409;DHT22;40315;48.620;9.828;2023-02-21T08:55:24;4.00;99.90
54409;DHT22;40315;48.620;9.828;2023-02-21T08:57:52;4.20;99.90
54409;DHT22;40315;48.620;9.828;2023-02-21T09:00:22;4.30;99.90
54409;DHT22;40315;48.620;9.828;2023-02-21T09:02:52;4.50;99.90
54409;DHT22;40315;48.620;9.828;2023-02-21T09:05:22;4.70;99.90
54409;DHT22;40315;48.620;9.828;2023-02-21T09:07:51;5.00;99.90
54409;DHT22;40315;48.620;9.828;2023-02-21T09:10:20;5.30;99.90
54409;DHT22;40315;48.620;9.828;2023-02-21T09:12:48;5.50;99.90
54409;DHT22;40315;48.620;9.828;2023-02-21T09:15:17;5.70;99.90
54409;DHT22;40315;48.620;9.828;2023-02-21T09:20:20;6.40;99.90
54409;DHT22;40315;48.620;9.828;2023-02-21T09:22:47;6.70;99.90
54409;DHT22;40315;48.620;9.828;2023-02-21T09:25:21;6.90;99.90
54409;DHT22;40315;48.620;9.828;2023-02-21T09:27:49;7.10;99.90
54409;DHT22;40315;48.620;9.828;2023-02-21T09:30:18;7.30;99.90
54409;DHT22;40315;48.620;9.828;2023-02-21T09:35:17;8.00;99.90
54409;DHT22;40315;48.620;9.828;2023-02-21T09:37:45;8.20;99.90
54409;DHT22;40315;48.620;9.828;2023-02-21T09:40:20;8.50;99.90
54409;DHT22;40315;48.620;9.828;2023-02-21T09:42:50;8.80;99.90
54409;DHT22;40315;48.620;9.828;2023-02-21T09:45:30;9.00;99.90
54409;DHT22;40315;48.620;9.828;2023-02-21T09:48:01;9.50;99.90
54409;DHT22;40315;48.620;9.828;2023-02-21T09:50:34;9.50;99.90
54409;DHT22;40315;48.620;9.828;2023-02-21T09:53:04;9.60;99.90
54409;DHT22;40315;48.620;9.828;2023-02-21T09:55:35;9.70;99.90
54409;DHT22;40315;48.620;9.828;2023-02-21T10:00:33;9.00;99.90
54409;DHT22;40315;48.620;9.828;2023-02-21T10:03:14;10.40;99.90
54409;DHT22;40315;48.620;9.828;2023-02-21T10:05:45;11.10;99.90
54409;DHT22;40315;48.620;9.828;2023-02-21T10:08:21;10.50;99.90
54409;DHT22;40315;48.620;9.828;2023-02-21T10:10:53;10.70;99.90
54409;DHT22;40315;48.620;9.828;2023-02-21T10:13:34;10.90;99.90
54409;DHT22;40315;48.620;9.828;2023-02-21T10:16:09;11.00;99.90
54409;DHT22;40315;48.620;9.828;2023-02-21T10:18:41;11.20;99.90
54409;DHT22;40315;48.620;9.828;2023-02-21T10:21:16;11.30;99.90
54409;DHT22;40315;48.620;9.828;2023-02-21T10:23:49;11.30;99.90
54409;DHT22;40315;48.620;9.828;2023-02-21T10:26:24;11.50;99.90
54409;DHT22;40315;48.620;9.828;2023-02-21T10:28:52;11.60;99.90
54409;DHT22;40315;48.620;9.828;2023-02-21T10:31:23;11.40;99.90
54409;DHT22;40315;48.620;9.828;2023-02-21T10:36:21;11.70;99.90
54409;DHT22;40315;48.620;9.828;2023-02-21T10:38:54;11.70;99.90
54409;DHT22;40315;48.620;9.828;2023-02-21T10:41:23;9.20;99.90
54409;DHT22;40315;48.620;9.828;2023-02-21T10:43:58;11.80;99.90
54409;DHT22;40315;48.620;9.828;2023-02-21T10:46:30;11.80;99.90
54409;DHT22;40315;48.620;9.828;2023-02-21T10:49:20;11.80;99.90
54409;DHT22;40315;48.620;9.828;2023-02-21T10:52:02;11.80;99.90
54409;DHT22;40315;48.620;9.828;2023-02-21T10:54:30;11.90;99.90
54409;DHT22;40315;48.620;9.828;2023-02-21T10:56:59;12.00;99.90
54409;DHT22;40315;48.620;9.828;2023-02-21T10:59:27;12.10;99.90
54409;DHT22;40315;48.620;9.828;2023-02-21T11:01:56;12.20;99.90
54409;DHT22;40315;48.620;9.828;2023-02-21T11:04:28;12.30;99.90
54409;DHT22;40315;48.620;9.828;2023-02-21T11:06:58;12.50;99.90
54409;DHT22;40315;48.620;9.828;2023-02-21T11:09:32;12.40;99.90
54409;DHT22;40315;48.620;9.828;2023-02-21T11:12:02;12.40;99.90
54409;DHT22;40315;48.620;9.828;2023-02-21T11:14:31;12.60;99.90
54409;DHT22;40315;48.620;9.828;2023-02-21T11:17:10;12.60;99.90
54409;DHT22;40315;48.620;9.828;2023-02-21T11:19:44;12.70;99.90
54409;DHT22;40315;48.620;9.828;2023-02-21T11:22:11;12.70;99.90
54409;DHT22;40315;48.620;9.828;2023-02-21T11:24:49;12.90;99.90
54409;DHT22;40315;48.620;9.828;2023-02-21T11:27:17;13.00;99.90
54409;DHT22;40315;48.620;9.828;2023-02-21T11:29:47;13.20;99.90
54409;DHT22;40315;48.620;9.828;2023-02-21T11:32:30;13.30;99.90
54409;DHT22;40315;48.620;9.828;2023-02-21T11:35:06;13.60;99.90
54409;DHT22;40315;48.620;9.828;2023-02-21T11:37:47;13.60;99.90
54409;DHT22;40315;48.620;9.828;2023-02-21T11:40:32;13.40;99.90
54409;DHT22;40315;48.620;9.828;2023-02-21T11:43:24;13.40;99.90
54409;DHT22;40315;48.620;9.828;2023-02-21T11:46:15;14.30;99.90
54409;DHT22;40315;48.620;9.828;2023-02-21T11:48:49;13.50;99.90
54409;DHT22;40315;48.620;9.828;2023-02-21T11:51:26;14.10;99.90
54409;DHT22;40315;48.620;9.828;2023-02-21T11:53:58;14.00;99.90
54409;DHT22;40315;48.620;9.828;2023-02-21T11:56:31;14.20;99.90
54409;DHT22;40315;48.620;9.828;2023-02-21T11:59:06;14.60;99.90
54409;DHT22;40315;48.620;9.828;2023-02-21T12:01:43;15.00;99.90
54409;DHT22;40315;48.620;9.828;2023-02-21T12:04:38;15.20;99.90
54409;DHT22;40315;48.620;9.828;2023-02-21T12:07:12;15.10;99.90
54409;DHT22;40315;48.620;9.828;2023-02-21T12:09:48;15.10;99.90
54409;DHT22;40315;48.620;9.828;2023-02-21T12:12:30;15.00;99.90
54409;DHT22;40315;48.620;9.828;2023-02-21T12:15:05;15.00;99.90
54409;DHT22;40315;48.620;9.828;2023-02-21T12:17:48;15.40;99.90
54409;DHT22;40315;48.620;9.828;2023-02-21T12:20:24;15.70;99.90
54409;DHT22;40315;48.620;9.828;2023-02-21T12:23:05;15.80;99.90
54409;DHT22;40315;48.620;9.828;2023-02-21T12:26:02;16.40;99.90
54409;DHT22;40315;48.620;9.828;2023-02-21T12:28:47;16.40;99.90
54409;DHT22;40315;48.620;9.828;2023-02-21T12:31:26;16.40;99.90
54409;DHT22;40315;48.620;9.828;2023-02-21T12:34:04;16.70;99.90
54409;DHT22;40315;48.620;9.828;2023-02-21T12:36:49;16.80;99.90
54409;DHT22;40315;48.620;9.828;2023-02-21T12:39:31;16.70;99.60
54409;DHT22;40315;48.620;9.828;2023-02-21T12:42:21;17.30;99.50
54409;DHT22;40315;48.620;9.828;2023-02-21T12:45:00;17.80;98.10
54409;DHT22;40315;48.620;9.828;2023-02-21T12:47:31;17.40;96.50
54409;DHT22;40315;48.620;9.828;2023-02-21T12:50:01;16.60;98.00
54409;DHT22;40315;48.620;9.828;2023-02-21T12:52:34;16.30;99.10
54409;DHT22;40315;48.620;9.828;2023-02-21T12:55:06;16.50;98.80
54409;DHT22;40315;48.620;9.828;2023-02-21T12:57:46;16.50;98.90
54409;DHT22;40315;48.620;9.828;2023-02-21T13:00:18;16.70;98.40
54409;DHT22;40315;48.620;9.828;2023-02-21T13:02:55;16.90;98.90
54409;DHT22;40315;48.620;9.828;2023-02-21T13:05:31;17.10;97.70
54409;DHT22;40315;48.620;9.828;2023-02-21T13:08:00;17.20;97.30
54409;DHT22;40315;48.620;9.828;2023-02-21T13:10:34;17.60;96.90
54409;DHT22;40315;48.620;9.828;2023-02-21T13:13:07;17.50;97.20
54409;DHT22;40315;48.620;9.828;2023-02-21T13:15:36;17.20;96.50
54409;DHT22;40315;48.620;9.828;2023-02-21T13:18:08;17.00;97.30
54409;DHT22;40315;48.620;9.828;2023-02-21T13:20:41;17.20;97.90
54409;DHT22;40315;48.620;9.828;2023-02-21T13:23:37;16.80;97.60
54409;DHT22;40315;48.620;9.828;2023-02-21T13:26:41;16.70;97.70
54409;DHT22;40315;48.620;9.828;2023-02-21T13:29:17;16.50;97.90
54409;DHT22;40315;48.620;9.828;2023-02-21T13:31:44;16.50;98.50
54409;DHT22;40315;48.620;9.828;2023-02-21T13:34:17;16.70;98.60
54409;DHT22;40315;48.620;9.828;2023-02-21T13:36:46;17.10;97.70
54409;DHT22;40315;48.620;9.828;2023-02-21T13:39:16;17.30;96.40
54409;DHT22;40315;48.620;9.828;2023-02-21T13:41:48;16.90;97.10
54409;DHT22;40315;48.620;9.828;2023-02-21T13:44:23;16.90;97.10
54409;DHT22;40315;48.620;9.828;2023-02-21T13:47:06;17.40;97.60
54409;DHT22;40315;48.620;9.828;2023-02-21T13:49:41;17.40;96.60
54409;DHT22;40315;48.620;9.828;2023-02-21T13:55:27;17.30;96.10
54409;DHT22;40315;48.620;9.828;2023-02-21T13:58:33;17.20;96.20
54409;DHT22;40315;48.620;9.828;2023-02-21T14:01:41;17.60;96.50
54409;DHT22;40315;48.620;9.828;2023-02-21T14:07:47;18.30;94.60
54409;DHT22;40315;48.620;9.828;2023-02-21T14:10:25;17.80;95.30
54409;DHT22;40315;48.620;9.828;2023-02-21T14:12:55;18.00;96.20
54409;DHT22;40315;48.620;9.828;2023-02-21T14:15:40;18.60;93.30
54409;DHT22;40315;48.620;9.828;2023-02-21T14:18:19;18.50;93.60
54409;DHT22;40315;48.620;9.828;2023-02-21T14:20:50;18.60;94.10
54409;DHT22;40315;48.620;9.828;2023-02-21T14:23:20;18.80;94.00
54409;DHT22;40315;48.620;9.828;2023-02-21T14:25:56;18.80;93.90
54409;DHT22;40315;48.620;9.828;2023-02-21T14:28:59;18.90;93.40
54409;DHT22;40315;48.620;9.828;2023-02-21T14:31:51;19.10;92.40
54409;DHT22;40315;48.620;9.828;2023-02-21T14:34:27;19.00;92.30
54409;DHT22;40315;48.620;9.828;2023-02-21T14:36:59;18.50;92.30
54409;DHT22;40315;48.620;9.828;2023-02-21T14:39:32;18.30;93.10
54409;DHT22;40315;48.620;9.828;2023-02-21T14:45:37;18.70;93.10
54409;DHT22;40315;48.620;9.828;2023-02-21T14:48:32;18.70;92.30
54409;DHT22;40315;48.620;9.828;2023-02-21T14:51:27;18.80;92.20
54409;DHT22;40315;48.620;9.828;2023-02-21T14:54:36;18.80;92.30
54409;DHT22;40315;48.620;9.828;2023-02-21T14:57:38;19.30;91.70
54409;DHT22;40315;48.620;9.828;2023-02-21T15:00:17;19.00;91.40
54409;DHT22;40315;48.620;9.828;2023-02-21T15:02:51;19.00;91.80
54409;DHT22;40315;48.620;9.828;2023-02-21T15:05:26;19.10;90.80
54409;DHT22;40315;48.620;9.828;2023-02-21T15:07:59;19.40;90.80
54409;DHT22;40315;48.620;9.828;2023-02-21T15:10:29;19.40;90.60
54409;DHT22;40315;48.620;9.828;2023-02-21T15:12:59;19.30;90.50
54409;DHT22;40315;48.620;9.828;2023-02-21T15:15:28;19.00;88.90
54409;DHT22;40315;48.620;9.828;2023-02-21T15:18:02;18.70;89.00
54409;DHT22;40315;48.620;9.828;2023-02-21T15:20:32;18.70;90.50
54409;DHT22;40315;48.620;9.828;2023-02-21T15:23:03;18.60;90.30
54409;DHT22;40315;48.620;9.828;2023-02-21T15:25:35;18.50;90.10
54409;DHT22;40315;48.620;9.828;2023-02-21T15:28:12;18.30;90.40
54409;DHT22;40315;48.620;9.828;2023-02-21T15:30:58;18.10;90.20
54409;DHT22;40315;48.620;9.828;2023-02-21T15:33:31;18.00;90.20
54409;DHT22;40315;48.620;9.828;2023-02-21T15:36:02;17.70;90.50
54409;DHT22;40315;48.620;9.828;2023-02-21T15:38:32;17.70;90.90
54409;DHT22;40315;48.620;9.828;2023-02-21T15:41:04;17.60;90.40
54409;DHT22;40315;48.620;9.828;2023-02-21T15:43:40;17.60;91.00
54409;DHT22;40315;48.620;9.828;2023-02-21T15:46:12;17.50;90.70
54409;DHT22;40315;48.620;9.828;2023-02-21T15:48:39;17.50;90.60
54409;DHT22;40315;48.620;9.828;2023-02-21T15:51:09;17.30;90.70
54409;DHT22;40315;48.620;9.828;2023-02-21T15:53:37;17.20;90.60
54409;DHT22;40315;48.620;9.828;2023-02-21T15:56:16;17.00;90.60
54409;DHT22;40315;48.620;9.828;2023-02-21T15:59:09;16.90;91.40
54409;DHT22;40315;48.620;9.828;2023-02-21T16:01:36;16.90;91.30
54409;DHT22;40315;48.620;9.828;2023-02-21T16:04:15;16.70;91.00
54409;DHT22;40315;48.620;9.828;2023-02-21T16:06:49;16.40;91.60
54409;DHT22;40315;48.620;9.828;2023-02-21T16:09:24;16.40;91.60
54409;DHT22;40315;48.620;9.828;2023-02-21T16:11:54;16.20;92.20
54409;DHT22;40315;48.620;9.828;2023-02-21T16:14:33;16.00;92.90
54409;DHT22;40315;48.620;9.828;2023-02-21T16:17:08;15.80;92.60
54409;DHT22;40315;48.620;9.828;2023-02-21T16:19:38;15.60;93.50
54409;DHT22;40315;48.620;9.828;2023-02-21T16:22:12;15.40;93.60
54409;DHT22;40315;48.620;9.828;2023-02-21T16:24:39;15.40;93.70
54409;DHT22;40315;48.620;9.828;2023-02-21T16:27:10;15.30;94.10
54409;DHT22;40315;48.620;9.828;2023-02-21T16:29:40;15.10;94.30
54409;DHT22;40315;48.620;9.828;2023-02-21T16:32:15;15.10;94.90
54409;DHT22;40315;48.620;9.828;2023-02-21T16:34:43;15.00;94.90
54409;DHT22;40315;48.620;9.828;2023-02-21T16:37:12;14.90;95.50
54409;DHT22;40315;48.620;9.828;2023-02-21T16:39:40;14.90;95.20
54409;DHT22;40315;48.620;9.828;2023-02-21T16:42:07;14.70;95.80
54409;DHT22;40315;48.620;9.828;2023-02-21T16:44:35;14.60;95.90
54409;DHT22;40315;48.620;9.828;2023-02-21T16:47:02;14.50;96.10
54409;DHT22;40315;48.620;9.828;2023-02-21T16:49:29;14.40;95.80
54409;DHT22;40315;48.620;9.828;2023-02-21T16:51:56;14.40;96.70
54409;DHT22;40315;48.620;9.828;2023-02-21T16:56:52;14.00;98.00
54409;DHT22;40315;48.620;9.828;2023-02-21T16:59:20;13.60;99.20
54409;DHT22;40315;48.620;9.828;2023-02-21T17:01:48;13.30;99.90
54409;DHT22;40315;48.620;9.828;2023-02-21T17:04:17;13.00;99.90
54409;DHT22;40315;48.620;9.828;2023-02-21T17:06:46;12.70;99.90
54409;DHT22;40315;48.620;9.828;2023-02-21T17:09:19;12.40;99.90
54409;DHT22;40315;48.620;9.828;2023-02-21T17:14:16;12.10;99.90
54409;DHT22;40315;48.620;9.828;2023-02-21T17:16:43;11.90;99.90
54409;DHT22;40315;48.620;9.828;2023-02-21T17:19:15;11.70;99.90
54409;DHT22;40315;48.620;9.828;2023-02-21T17:24:12;13.00;99.90
54409;DHT22;40315;48.620;9.828;2023-02-21T17:26:39;11.70;99.90
54409;DHT22;40315;48.620;9.828;2023-02-21T17:29:10;11.50;99.90
54409;DHT22;40315;48.620;9.828;2023-02-21T17:36:32;11.00;99.90
54409;DHT22;40315;48.620;9.828;2023-02-21T17:41:26;10.60;99.90
54409;DHT22;40315;48.620;9.828;2023-02-21T17:43:54;10.50;99.90
54409;DHT22;40315;48.620;9.828;2023-02-21T17:51:21;10.20;99.90
54409;DHT22;40315;48.620;9.828;2023-02-21T17:56:18;10.00;99.90
54409;DHT22;40315;48.620;9.828;2023-02-21T17:58:45;9.90;99.90
54409;DHT22;40315;48.620;9.828;2023-02-21T18:01:17;9.80;99.90
54409;DHT22;40315;48.620;9.828;2023-02-21T18:11:13;9.40;99.90
54409;DHT22;40315;48.620;9.828;2023-02-21T18:16:10;9.30;99.90
54409;DHT22;40315;48.620;9.828;2023-02-21T18:18:39;9.20;99.90